עמוד ראשי
METAR-TAF:

METAR-TAF

שדות תעופה :

נמל התעופה הבינלאומי באסל אל-אסד

לטקיה, סוריה

קו רוחב: 35-32N, קו אורך: 035-46E, גובה: 7מטר

תצפית מזג אוויר נוכחית

הדו"ח נערך לפני 2 שעות ו 11דקות, בשעה 11:00 UTC
רוח 12קשר מכיוון דרום-מערב
טמפרטורת 30 צלסיוס
לחות 59%
לחץ 1006 hPa
ראות 10 קילומטר או יותר
מעט עננים בגובה 3000רגל

METAR: OSLK 251100Z 22012KT 9999 FEW030 30/21 Q1006

זמן: 16:11 (13:11 UTC)

תחזית

הדו"ח נערך לפני 1 שעות ו 11דקות, בשעה 12:00 UTC
תחזית בתוקף מ 25 ב 12 UTC עד 26 ב 12 UTC
רוח 15קשר מכיוון דרום-מערב
ראות 10 קילומטר או יותר
עננים פזורים בגובה 3000רגל
זמנית מ -
25 ב 20 UTC עד 26 ב 06 UTC
רוח 10קשר מכיוון דרום/דרום-מזרח

TAF: OSLK 251200Z 2512/2612 23015KT 9999 SCT030 TEMPO 2520/2606 16010KT

תצפיות ותחזיות מזג אוויר לגבי יותר מ- 4,000 שדות תעופה ברחבי העולם. דוחות METAR ו- TAF.

התחנות הזמינות מסומנות בנקודות צהובות ואדומות על גבי המפה.

העבר את העכבר לנקודה הצבעונית על מנת לראות את שם התחנה.

לאחר מכן, לחץ כדי לראות את תוכן ואת תחזיות מזג האוויר.

כדי לשנות את המפה: לחץ על הכפתורים הירוקים עם הפלוס השחור כדי להתקרב; על הכפתור הירוק עם המקף כדי להתרחק; או בחיצים הירוקים למפות סמוכות.


METAR-TAF: